Terminal Aerodrome Forecast
Issued by NWS

Home | Current Version | Previous Version | Graphics & Text | Print | Product List | Glossary On
Versions: 1 2 3 4 5 6 7 8 9 10 11 12 13 14 15 16 17
000
FTUS43 KGRB 262323
TAFCWA
TAF
KCWA 262323Z 2700/2724 18004KT P6SM SCT200
     FM270800 VRB03KT 5SM BR SKC
      TEMPO 2709/2712 2SM BR
     FM271200 13005KT P6SM FEW040 SCT200=

USA.gov is the U.S. government's official web portal to all federal, state and local government web resources and services.